sensor_id;sensor_type;location;lat;lon;timestamp;pressure;altitude;pressure_sealevel;temperature;humidity
40730;BME280;26418;50.070;8.436;2022-08-03T00:02:24;100019.44;;;21.69;47.30
40730;BME280;26418;50.070;8.436;2022-08-03T00:04:50;100014.28;;;21.67;47.30
40730;BME280;26418;50.070;8.436;2022-08-03T00:07:15;100011.16;;;21.65;47.36
40730;BME280;26418;50.070;8.436;2022-08-03T00:09:41;100010.69;;;21.59;47.51
40730;BME280;26418;50.070;8.436;2022-08-03T00:12:07;100014.22;;;21.60;47.22
40730;BME280;26418;50.070;8.436;2022-08-03T00:14:33;100017.34;;;21.58;47.57
40730;BME280;26418;50.070;8.436;2022-08-03T00:16:58;100007.47;;;21.57;47.59
40730;BME280;26418;50.070;8.436;2022-08-03T00:19:24;100005.44;;;21.54;47.48
40730;BME280;26418;50.070;8.436;2022-08-03T00:21:49;100009.44;;;21.57;47.51
40730;BME280;26418;50.070;8.436;2022-08-03T00:24:15;100006.66;;;21.53;47.68
40730;BME280;26418;50.070;8.436;2022-08-03T00:26:40;100006.94;;;21.48;47.94
40730;BME280;26418;50.070;8.436;2022-08-03T00:29:06;100012.78;;;21.43;48.35
40730;BME280;26418;50.070;8.436;2022-08-03T00:31:32;100012.34;;;21.41;48.50
40730;BME280;26418;50.070;8.436;2022-08-03T00:34:08;100014.72;;;21.42;47.97
40730;BME280;26418;50.070;8.436;2022-08-03T00:36:33;100016.66;;;21.38;48.38
40730;BME280;26418;50.070;8.436;2022-08-03T00:38:59;100004.75;;;21.30;48.13
40730;BME280;26418;50.070;8.436;2022-08-03T00:41:24;100005.50;;;21.27;48.48
40730;BME280;26418;50.070;8.436;2022-08-03T00:44:08;100011.72;;;21.24;48.71
40730;BME280;26418;50.070;8.436;2022-08-03T00:46:33;100006.97;;;21.21;48.87
40730;BME280;26418;50.070;8.436;2022-08-03T00:48:59;100008.50;;;21.18;49.18
40730;BME280;26418;50.070;8.436;2022-08-03T00:51:57;100009.72;;;21.21;48.95
40730;BME280;26418;50.070;8.436;2022-08-03T00:54:23;100012.06;;;21.19;49.42
40730;BME280;26418;50.070;8.436;2022-08-03T00:56:50;100007.72;;;21.18;49.55
40730;BME280;26418;50.070;8.436;2022-08-03T00:59:17;100004.16;;;21.17;49.29
40730;BME280;26418;50.070;8.436;2022-08-03T01:01:42;99993.50;;;21.12;49.24
40730;BME280;26418;50.070;8.436;2022-08-03T01:04:08;100001.84;;;21.19;49.22
40730;BME280;26418;50.070;8.436;2022-08-03T01:11:42;99999.38;;;21.11;48.75
40730;BME280;26418;50.070;8.436;2022-08-03T01:14:15;99993.78;;;21.07;49.34
40730;BME280;26418;50.070;8.436;2022-08-03T01:17:02;99996.13;;;21.05;49.46
40730;BME280;26418;50.070;8.436;2022-08-03T01:25:03;99991.53;;;21.13;48.56
40730;BME280;26418;50.070;8.436;2022-08-03T01:27:40;99995.81;;;21.10;49.00
40730;BME280;26418;50.070;8.436;2022-08-03T01:30:11;99999.38;;;21.11;48.73
40730;BME280;26418;50.070;8.436;2022-08-03T01:32:47;99995.81;;;21.10;48.80
40730;BME280;26418;50.070;8.436;2022-08-03T01:35:40;99991.84;;;21.08;49.01
40730;BME280;26418;50.070;8.436;2022-08-03T01:38:26;99991.81;;;21.04;48.71
40730;BME280;26418;50.070;8.436;2022-08-03T01:40:53;99986.69;;;21.02;48.85
40730;BME280;26418;50.070;8.436;2022-08-03T01:43:24;99983.50;;;21.00;48.91
40730;BME280;26418;50.070;8.436;2022-08-03T01:45:53;99988.19;;;21.00;49.23
40730;BME280;26418;50.070;8.436;2022-08-03T01:48:20;99989.25;;;20.92;49.37
40730;BME280;26418;50.070;8.436;2022-08-03T01:50:47;99976.94;;;20.82;49.67
40730;BME280;26418;50.070;8.436;2022-08-03T01:53:16;99981.56;;;20.78;49.40
40730;BME280;26418;50.070;8.436;2022-08-03T01:55:45;99987.00;;;20.74;49.86
40730;BME280;26418;50.070;8.436;2022-08-03T01:58:14;99987.44;;;20.76;49.79
40730;BME280;26418;50.070;8.436;2022-08-03T02:00:40;99979.94;;;20.73;49.67
40730;BME280;26418;50.070;8.436;2022-08-03T02:03:07;99983.00;;;20.71;49.88
40730;BME280;26418;50.070;8.436;2022-08-03T02:05:34;99991.63;;;20.70;50.23
40730;BME280;26418;50.070;8.436;2022-08-03T02:08:02;99986.13;;;20.70;50.34
40730;BME280;26418;50.070;8.436;2022-08-03T02:10:28;99981.41;;;20.70;49.89
40730;BME280;26418;50.070;8.436;2022-08-03T02:12:56;99981.00;;;20.68;50.24
40730;BME280;26418;50.070;8.436;2022-08-03T02:15:24;99976.72;;;20.71;49.51
40730;BME280;26418;50.070;8.436;2022-08-03T02:17:52;99978.28;;;20.68;49.72
40730;BME280;26418;50.070;8.436;2022-08-03T02:20:19;99968.72;;;20.62;49.93
40730;BME280;26418;50.070;8.436;2022-08-03T02:22:46;99978.13;;;20.61;49.77
40730;BME280;26418;50.070;8.436;2022-08-03T02:25:13;99983.94;;;20.56;50.52
40730;BME280;26418;50.070;8.436;2022-08-03T02:27:46;99968.13;;;20.49;50.86
40730;BME280;26418;50.070;8.436;2022-08-03T02:30:13;99971.69;;;20.50;50.72
40730;BME280;26418;50.070;8.436;2022-08-03T02:32:42;99979.09;;;20.49;50.76
40730;BME280;26418;50.070;8.436;2022-08-03T02:35:11;99979.91;;;20.50;50.78
40730;BME280;26418;50.070;8.436;2022-08-03T02:37:43;99974.00;;;20.48;50.51
40730;BME280;26418;50.070;8.436;2022-08-03T02:40:12;99977.84;;;20.43;50.89
40730;BME280;26418;50.070;8.436;2022-08-03T02:42:39;99978.09;;;20.34;51.05
40730;BME280;26418;50.070;8.436;2022-08-03T02:45:09;99978.44;;;20.33;51.41
40730;BME280;26418;50.070;8.436;2022-08-03T02:47:40;99978.81;;;20.31;51.07
40730;BME280;26418;50.070;8.436;2022-08-03T02:50:08;99976.84;;;20.32;51.07
40730;BME280;26418;50.070;8.436;2022-08-03T02:52:35;99980.34;;;20.29;51.32
40730;BME280;26418;50.070;8.436;2022-08-03T02:55:02;99972.47;;;20.27;51.29
40730;BME280;26418;50.070;8.436;2022-08-03T02:57:30;99979.91;;;20.26;51.59
40730;BME280;26418;50.070;8.436;2022-08-03T02:59:58;99980.28;;;20.25;51.47
40730;BME280;26418;50.070;8.436;2022-08-03T03:02:25;99973.91;;;20.21;51.63
40730;BME280;26418;50.070;8.436;2022-08-03T03:04:54;99971.91;;;20.18;51.95
40730;BME280;26418;50.070;8.436;2022-08-03T03:07:21;99972.25;;;20.16;52.09
40730;BME280;26418;50.070;8.436;2022-08-03T03:09:47;99975.38;;;20.15;51.94
40730;BME280;26418;50.070;8.436;2022-08-03T03:12:14;99979.28;;;20.14;52.09
40730;BME280;26418;50.070;8.436;2022-08-03T03:14:41;99976.53;;;20.14;51.96
40730;BME280;26418;50.070;8.436;2022-08-03T03:17:09;99976.47;;;20.10;51.96
40730;BME280;26418;50.070;8.436;2022-08-03T03:19:36;99976.03;;;20.08;52.27
40730;BME280;26418;50.070;8.436;2022-08-03T03:22:04;99977.13;;;20.03;52.28
40730;BME280;26418;50.070;8.436;2022-08-03T03:24:31;99982.53;;;20.00;52.55
40730;BME280;26418;50.070;8.436;2022-08-03T03:26:57;99971.94;;;19.98;52.72
40730;BME280;26418;50.070;8.436;2022-08-03T03:29:23;99982.91;;;19.98;52.49
40730;BME280;26418;50.070;8.436;2022-08-03T03:31:49;99977.13;;;20.03;52.23
40730;BME280;26418;50.070;8.436;2022-08-03T03:34:17;99985.78;;;20.05;52.15
40730;BME280;26418;50.070;8.436;2022-08-03T03:36:44;99991.59;;;20.00;52.21
40730;BME280;26418;50.070;8.436;2022-08-03T03:39:10;99985.22;;;19.96;52.60
40730;BME280;26418;50.070;8.436;2022-08-03T03:41:36;99985.16;;;19.92;52.47
40730;BME280;26418;50.070;8.436;2022-08-03T03:44:02;99981.97;;;19.90;52.54
40730;BME280;26418;50.070;8.436;2022-08-03T03:46:28;99985.44;;;19.87;52.99
40730;BME280;26418;50.070;8.436;2022-08-03T03:48:53;99980.66;;;19.84;53.36
40730;BME280;26418;50.070;8.436;2022-08-03T03:51:19;99986.13;;;19.84;53.10
40730;BME280;26418;50.070;8.436;2022-08-03T03:53:55;99978.19;;;19.79;53.20
40730;BME280;26418;50.070;8.436;2022-08-03T03:56:20;99986.06;;;19.80;53.01
40730;BME280;26418;50.070;8.436;2022-08-03T03:58:46;99984.47;;;19.79;53.28
40730;BME280;26418;50.070;8.436;2022-08-03T04:01:11;99978.41;;;19.70;53.05
40730;BME280;26418;50.070;8.436;2022-08-03T04:03:38;99977.47;;;19.62;53.49
40730;BME280;26418;50.070;8.436;2022-08-03T04:06:03;99981.44;;;19.65;53.40
40730;BME280;26418;50.070;8.436;2022-08-03T04:08:47;99977.13;;;19.64;54.02
40730;BME280;26418;50.070;8.436;2022-08-03T04:11:42;99967.94;;;19.56;54.16
40730;BME280;26418;50.070;8.436;2022-08-03T04:14:13;99981.38;;;19.61;53.97
40730;BME280;26418;50.070;8.436;2022-08-03T04:16:45;99979.06;;;19.63;54.31
40730;BME280;26418;50.070;8.436;2022-08-03T04:19:17;99977.56;;;19.66;54.31
40730;BME280;26418;50.070;8.436;2022-08-03T04:21:47;99976.88;;;19.73;53.69
40730;BME280;26418;50.070;8.436;2022-08-03T04:24:14;99970.97;;;19.71;54.01
40730;BME280;26418;50.070;8.436;2022-08-03T04:26:41;99974.50;;;19.71;54.08
40730;BME280;26418;50.070;8.436;2022-08-03T04:29:08;99974.06;;;19.69;53.91
40730;BME280;26418;50.070;8.436;2022-08-03T04:31:35;99972.22;;;19.73;54.25
40730;BME280;26418;50.070;8.436;2022-08-03T04:34:03;99973.44;;;19.76;54.07
40730;BME280;26418;50.070;8.436;2022-08-03T04:36:31;99987.22;;;19.79;53.75
40730;BME280;26418;50.070;8.436;2022-08-03T04:39:05;99984.41;;;19.76;53.97
40730;BME280;26418;50.070;8.436;2022-08-03T04:41:33;99992.25;;;19.77;53.87
40730;BME280;26418;50.070;8.436;2022-08-03T04:44:00;99976.47;;;19.71;53.90
40730;BME280;26418;50.070;8.436;2022-08-03T04:46:28;99972.78;;;19.63;54.11
40730;BME280;26418;50.070;8.436;2022-08-03T04:48:56;99988.38;;;19.78;53.93
40730;BME280;26418;50.070;8.436;2022-08-03T04:51:22;99990.78;;;19.80;54.05
40730;BME280;26418;50.070;8.436;2022-08-03T04:53:49;99974.25;;;19.76;53.77
40730;BME280;26418;50.070;8.436;2022-08-03T04:56:14;99995.22;;;19.85;54.08
40730;BME280;26418;50.070;8.436;2022-08-03T04:58:40;99997.97;;;19.85;54.03
40730;BME280;26418;50.070;8.436;2022-08-03T05:01:05;100001.47;;;19.85;53.95
40730;BME280;26418;50.070;8.436;2022-08-03T05:03:31;100002.84;;;19.95;53.73
40730;BME280;26418;50.070;8.436;2022-08-03T05:05:56;100004.50;;;20.00;53.54
40730;BME280;26418;50.070;8.436;2022-08-03T05:08:21;100006.09;;;20.01;53.90
40730;BME280;26418;50.070;8.436;2022-08-03T05:10:47;100006.97;;;20.05;53.87
40730;BME280;26418;50.070;8.436;2022-08-03T05:13:12;100003.84;;;20.06;53.72
40730;BME280;26418;50.070;8.436;2022-08-03T05:15:39;100005.44;;;20.07;53.73
40730;BME280;26418;50.070;8.436;2022-08-03T05:18:05;100010.13;;;20.07;53.94
40730;BME280;26418;50.070;8.436;2022-08-03T05:20:30;100012.66;;;20.16;53.64
40730;BME280;26418;50.070;8.436;2022-08-03T05:22:56;100011.63;;;20.24;53.33
40730;BME280;26418;50.070;8.436;2022-08-03T05:25:22;100014.06;;;20.29;53.68
40730;BME280;26418;50.070;8.436;2022-08-03T05:27:48;100012.97;;;20.34;53.66
40730;BME280;26418;50.070;8.436;2022-08-03T05:30:14;100016.59;;;20.38;53.36
40730;BME280;26418;50.070;8.436;2022-08-03T05:32:39;100009.59;;;20.40;53.60
40730;BME280;26418;50.070;8.436;2022-08-03T05:35:05;100011.28;;;20.49;53.50
40730;BME280;26418;50.070;8.436;2022-08-03T05:37:31;100002.34;;;20.52;53.24
40730;BME280;26418;50.070;8.436;2022-08-03T05:39:56;100015.03;;;20.60;53.00
40730;BME280;26418;50.070;8.436;2022-08-03T05:42:22;100010.38;;;20.64;53.02
40730;BME280;26418;50.070;8.436;2022-08-03T05:44:47;100013.75;;;20.77;52.94
40730;BME280;26418;50.070;8.436;2022-08-03T05:47:12;100023.00;;;20.88;52.75
40730;BME280;26418;50.070;8.436;2022-08-03T05:49:38;100020.34;;;20.96;52.66
40730;BME280;26418;50.070;8.436;2022-08-03T05:52:04;100016.50;;;21.00;52.22
40730;BME280;26418;50.070;8.436;2022-08-03T05:54:29;100030.34;;;21.08;52.14
40730;BME280;26418;50.070;8.436;2022-08-03T05:56:54;100026.13;;;21.14;51.94
40730;BME280;26418;50.070;8.436;2022-08-03T05:59:20;100044.31;;;21.22;51.54
40730;BME280;26418;50.070;8.436;2022-08-03T06:01:46;100030.31;;;21.31;51.50
40730;BME280;26418;50.070;8.436;2022-08-03T06:04:12;100031.94;;;21.35;50.89
40730;BME280;26418;50.070;8.436;2022-08-03T06:06:37;100033.22;;;21.42;50.91
40730;BME280;26418;50.070;8.436;2022-08-03T06:09:02;100034.00;;;21.42;50.78
40730;BME280;26418;50.070;8.436;2022-08-03T06:11:28;100033.31;;;21.49;50.34
40730;BME280;26418;50.070;8.436;2022-08-03T06:13:53;100033.41;;;21.56;50.37
40730;BME280;26418;50.070;8.436;2022-08-03T06:16:19;100032.34;;;21.64;50.37
40730;BME280;26418;50.070;8.436;2022-08-03T06:18:45;100025.41;;;21.74;50.28
40730;BME280;26418;50.070;8.436;2022-08-03T06:21:11;100025.16;;;21.87;50.32
40730;BME280;26418;50.070;8.436;2022-08-03T06:23:37;100023.34;;;21.98;49.18
40730;BME280;26418;50.070;8.436;2022-08-03T06:26:05;100017.50;;;22.03;48.97
40730;BME280;26418;50.070;8.436;2022-08-03T06:28:30;100021.88;;;22.08;49.13
40730;BME280;26418;50.070;8.436;2022-08-03T06:30:56;100001.38;;;22.05;48.67
40730;BME280;26418;50.070;8.436;2022-08-03T06:33:21;100025.56;;;22.23;48.68
40730;BME280;26418;50.070;8.436;2022-08-03T06:35:46;100022.19;;;22.37;48.54
40730;BME280;26418;50.070;8.436;2022-08-03T06:38:12;100027.81;;;22.48;48.35
40730;BME280;26418;50.070;8.436;2022-08-03T06:40:37;100006.09;;;22.42;48.08
40730;BME280;26418;50.070;8.436;2022-08-03T06:43:05;100014.53;;;22.57;48.24
40730;BME280;26418;50.070;8.436;2022-08-03T06:45:30;100010.69;;;22.69;47.81
40730;BME280;26418;50.070;8.436;2022-08-03T06:50:26;100016.38;;;22.90;47.26
40730;BME280;26418;50.070;8.436;2022-08-03T06:52:51;100010.13;;;22.97;46.92
40730;BME280;26418;50.070;8.436;2022-08-03T06:55:17;100018.47;;;23.08;46.43
40730;BME280;26418;50.070;8.436;2022-08-03T06:57:42;100006.69;;;23.11;46.61
40730;BME280;26418;50.070;8.436;2022-08-03T07:00:08;100011.53;;;23.25;46.22
40730;BME280;26418;50.070;8.436;2022-08-03T07:02:34;100010.34;;;23.30;46.20
40730;BME280;26418;50.070;8.436;2022-08-03T07:04:59;100003.69;;;23.38;46.04
40730;BME280;26418;50.070;8.436;2022-08-03T07:07:25;100021.16;;;23.60;45.62
40730;BME280;26418;50.070;8.436;2022-08-03T07:09:51;100019.22;;;23.68;45.50
40730;BME280;26418;50.070;8.436;2022-08-03T07:12:16;100011.38;;;23.77;45.21
40730;BME280;26418;50.070;8.436;2022-08-03T07:14:42;100020.53;;;23.92;44.45
40730;BME280;26418;50.070;8.436;2022-08-03T07:17:07;100008.72;;;23.95;44.77
40730;BME280;26418;50.070;8.436;2022-08-03T07:19:33;100026.13;;;24.17;43.80
40730;BME280;26418;50.070;8.436;2022-08-03T07:21:58;100008.81;;;24.28;43.51
40730;BME280;26418;50.070;8.436;2022-08-03T07:24:23;100008.81;;;24.35;42.84
40730;BME280;26418;50.070;8.436;2022-08-03T07:26:49;100017.91;;;24.50;42.63
40730;BME280;26418;50.070;8.436;2022-08-03T07:29:14;100021.47;;;24.58;42.96
40730;BME280;26418;50.070;8.436;2022-08-03T07:31:50;100016.38;;;24.71;43.11
40730;BME280;26418;50.070;8.436;2022-08-03T07:34:15;100027.81;;;24.91;42.26
40730;BME280;26418;50.070;8.436;2022-08-03T07:36:40;100026.25;;;25.04;42.35
40730;BME280;26418;50.070;8.436;2022-08-03T07:39:06;100026.22;;;25.19;41.97
40730;BME280;26418;50.070;8.436;2022-08-03T07:41:33;100030.94;;;25.36;41.32
40730;BME280;26418;50.070;8.436;2022-08-03T07:43:58;100029.75;;;25.45;40.01
40730;BME280;26418;50.070;8.436;2022-08-03T07:46:27;100028.91;;;25.58;40.02
40730;BME280;26418;50.070;8.436;2022-08-03T07:48:53;100030.06;;;25.68;39.82
40730;BME280;26418;50.070;8.436;2022-08-03T07:51:18;100032.78;;;25.83;39.66
40730;BME280;26418;50.070;8.436;2022-08-03T07:53:44;100031.16;;;25.93;38.74
40730;BME280;26418;50.070;8.436;2022-08-03T07:56:09;100035.47;;;26.01;38.68
40730;BME280;26418;50.070;8.436;2022-08-03T07:58:35;100022.78;;;26.07;38.68
40730;BME280;26418;50.070;8.436;2022-08-03T08:01:01;100025.16;;;26.09;37.95
40730;BME280;26418;50.070;8.436;2022-08-03T08:03:27;100019.22;;;26.14;38.62
40730;BME280;26418;50.070;8.436;2022-08-03T08:05:52;100021.09;;;26.24;37.95
40730;BME280;26418;50.070;8.436;2022-08-03T08:08:19;100017.09;;;26.32;37.40
40730;BME280;26418;50.070;8.436;2022-08-03T08:10:45;100021.00;;;26.42;37.20
40730;BME280;26418;50.070;8.436;2022-08-03T08:13:11;100011.81;;;26.52;37.42
40730;BME280;26418;50.070;8.436;2022-08-03T08:15:36;100007.72;;;26.68;37.40
40730;BME280;26418;50.070;8.436;2022-08-03T08:18:02;100003.66;;;26.83;36.89
40730;BME280;26418;50.070;8.436;2022-08-03T08:20:32;100006.31;;;26.98;36.68
40730;BME280;26418;50.070;8.436;2022-08-03T08:23:03;100007.34;;;27.15;37.16
40730;BME280;26418;50.070;8.436;2022-08-03T08:25:30;100003.22;;;27.30;36.85
40730;BME280;26418;50.070;8.436;2022-08-03T08:27:56;100004.66;;;27.46;36.46
40730;BME280;26418;50.070;8.436;2022-08-03T08:30:22;100000.91;;;27.60;36.31
40730;BME280;26418;50.070;8.436;2022-08-03T08:32:48;100005.91;;;27.72;35.73
40730;BME280;26418;50.070;8.436;2022-08-03T08:35:15;99995.88;;;27.82;34.83
40730;BME280;26418;50.070;8.436;2022-08-03T08:37:41;100004.50;;;27.88;34.78
40730;BME280;26418;50.070;8.436;2022-08-03T08:40:08;100001.22;;;27.97;34.88
40730;BME280;26418;50.070;8.436;2022-08-03T08:42:36;100001.81;;;28.15;34.66
40730;BME280;26418;50.070;8.436;2022-08-03T08:45:03;99987.63;;;28.33;34.25
40730;BME280;26418;50.070;8.436;2022-08-03T08:47:36;99990.84;;;28.55;34.10
40730;BME280;26418;50.070;8.436;2022-08-03T08:50:02;99994.34;;;28.87;33.67
40730;BME280;26418;50.070;8.436;2022-08-03T08:52:29;99991.31;;;29.22;32.86
40730;BME280;26418;50.070;8.436;2022-08-03T08:54:58;99993.41;;;29.58;31.55
40730;BME280;26418;50.070;8.436;2022-08-03T08:57:34;99991.56;;;29.88;31.51
40730;BME280;26418;50.070;8.436;2022-08-03T09:00:11;99990.34;;;30.25;31.45
40730;BME280;26418;50.070;8.436;2022-08-03T09:02:39;99989.72;;;30.54;31.00
40730;BME280;26418;50.070;8.436;2022-08-03T09:05:13;99984.53;;;30.69;29.80
40730;BME280;26418;50.070;8.436;2022-08-03T09:07:40;99989.38;;;30.98;29.26
40730;BME280;26418;50.070;8.436;2022-08-03T09:10:07;99993.03;;;31.12;28.86
40730;BME280;26418;50.070;8.436;2022-08-03T09:12:44;99980.81;;;31.35;28.82
40730;BME280;26418;50.070;8.436;2022-08-03T09:15:25;99985.06;;;31.69;28.33
40730;BME280;26418;50.070;8.436;2022-08-03T09:17:53;99987.09;;;32.07;28.22
40730;BME280;26418;50.070;8.436;2022-08-03T09:20:20;99979.75;;;32.26;27.35
40730;BME280;26418;50.070;8.436;2022-08-03T09:23:04;99982.41;;;32.43;27.22
40730;BME280;26418;50.070;8.436;2022-08-03T09:28:05;99981.03;;;32.60;26.50
40730;BME280;26418;50.070;8.436;2022-08-03T09:30:31;99986.69;;;32.83;26.54
40730;BME280;26418;50.070;8.436;2022-08-03T09:33:05;99986.28;;;33.06;25.56
40730;BME280;26418;50.070;8.436;2022-08-03T09:35:31;99985.03;;;33.30;25.72
40730;BME280;26418;50.070;8.436;2022-08-03T09:38:10;99980.63;;;33.42;25.07
40730;BME280;26418;50.070;8.436;2022-08-03T09:40:36;99981.56;;;33.70;24.97
40730;BME280;26418;50.070;8.436;2022-08-03T09:43:02;99975.19;;;34.01;25.19
40730;BME280;26418;50.070;8.436;2022-08-03T09:45:27;99976.66;;;34.33;24.48
40730;BME280;26418;50.070;8.436;2022-08-03T09:47:54;99973.75;;;34.46;24.27
40730;BME280;26418;50.070;8.436;2022-08-03T09:50:21;99967.56;;;34.61;23.42
40730;BME280;26418;50.070;8.436;2022-08-03T09:52:46;99967.25;;;34.68;24.36
40730;BME280;26418;50.070;8.436;2022-08-03T09:55:15;99967.09;;;34.72;24.05
40730;BME280;26418;50.070;8.436;2022-08-03T09:57:43;99969.75;;;34.85;23.39
40730;BME280;26418;50.070;8.436;2022-08-03T10:00:13;99967.75;;;34.94;23.75
40730;BME280;26418;50.070;8.436;2022-08-03T10:02:41;99972.13;;;34.95;23.45
40730;BME280;26418;50.070;8.436;2022-08-03T10:05:10;99975.22;;;35.25;23.39
40730;BME280;26418;50.070;8.436;2022-08-03T10:07:46;99964.41;;;35.52;22.75
40730;BME280;26418;50.070;8.436;2022-08-03T10:10:13;99964.34;;;35.70;21.97
40730;BME280;26418;50.070;8.436;2022-08-03T10:12:40;99968.34;;;35.88;22.22
40730;BME280;26418;50.070;8.436;2022-08-03T10:15:06;99966.59;;;36.00;22.24
40730;BME280;26418;50.070;8.436;2022-08-03T10:17:32;99960.22;;;36.24;21.75
40730;BME280;26418;50.070;8.436;2022-08-03T10:19:58;99952.66;;;36.30;21.32
40730;BME280;26418;50.070;8.436;2022-08-03T10:22:34;99958.88;;;36.43;21.03
40730;BME280;26418;50.070;8.436;2022-08-03T10:25:05;99952.59;;;36.15;20.77
40730;BME280;26418;50.070;8.436;2022-08-03T10:27:34;99953.69;;;36.17;20.47
40730;BME280;26418;50.070;8.436;2022-08-03T10:30:02;99947.94;;;36.12;21.57
40730;BME280;26418;50.070;8.436;2022-08-03T10:32:54;99938.88;;;36.32;21.08
40730;BME280;26418;50.070;8.436;2022-08-03T10:35:22;99935.50;;;36.18;20.95
40730;BME280;26418;50.070;8.436;2022-08-03T10:37:58;99935.38;;;36.46;21.45
40730;BME280;26418;50.070;8.436;2022-08-03T10:40:26;99934.72;;;36.52;21.14
40730;BME280;26418;50.070;8.436;2022-08-03T10:42:55;99935.66;;;36.88;20.95
40730;BME280;26418;50.070;8.436;2022-08-03T10:45:26;99940.09;;;37.19;20.21
40730;BME280;26418;50.070;8.436;2022-08-03T10:47:54;99932.63;;;37.31;20.60
40730;BME280;26418;50.070;8.436;2022-08-03T10:50:23;99924.03;;;37.55;19.33
40730;BME280;26418;50.070;8.436;2022-08-03T10:55:41;99916.19;;;37.14;19.52
40730;BME280;26418;50.070;8.436;2022-08-03T10:58:50;99921.31;;;37.16;20.12
40730;BME280;26418;50.070;8.436;2022-08-03T11:01:17;99911.13;;;37.48;19.68
40730;BME280;26418;50.070;8.436;2022-08-03T11:06:25;99909.63;;;37.68;18.91
40730;BME280;26418;50.070;8.436;2022-08-03T11:11:38;99909.69;;;37.38;20.42
40730;BME280;26418;50.070;8.436;2022-08-03T11:14:13;99908.09;;;37.37;20.46
40730;BME280;26418;50.070;8.436;2022-08-03T11:16:46;99914.72;;;37.49;20.01
40730;BME280;26418;50.070;8.436;2022-08-03T11:19:17;99899.25;;;37.95;19.55
40730;BME280;26418;50.070;8.436;2022-08-03T11:35:09;99896.22;;;39.39;18.26
40730;BME280;26418;50.070;8.436;2022-08-03T11:37:36;99892.22;;;39.57;17.51
40730;BME280;26418;50.070;8.436;2022-08-03T11:43:07;99890.28;;;39.37;17.27
40730;BME280;26418;50.070;8.436;2022-08-03T11:45:34;99889.91;;;39.56;17.40
40730;BME280;26418;50.070;8.436;2022-08-03T11:48:14;99891.47;;;39.25;18.20
40730;BME280;26418;50.070;8.436;2022-08-03T11:50:40;99886.50;;;39.46;18.26
40730;BME280;26418;50.070;8.436;2022-08-03T11:53:13;99880.88;;;39.89;17.39
40730;BME280;26418;50.070;8.436;2022-08-03T11:55:40;99882.75;;;40.09;16.83
40730;BME280;26418;50.070;8.436;2022-08-03T11:58:07;99874.72;;;39.97;17.16
40730;BME280;26418;50.070;8.436;2022-08-03T12:00:33;99884.81;;;40.09;17.52
40730;BME280;26418;50.070;8.436;2022-08-03T12:03:08;99877.09;;;40.09;16.82
40730;BME280;26418;50.070;8.436;2022-08-03T12:05:38;99866.22;;;39.97;16.63
40730;BME280;26418;50.070;8.436;2022-08-03T12:08:05;99881.06;;;39.74;16.75
40730;BME280;26418;50.070;8.436;2022-08-03T12:10:31;99869.59;;;40.01;17.04
40730;BME280;26418;50.070;8.436;2022-08-03T12:12:59;99865.84;;;40.21;16.05
40730;BME280;26418;50.070;8.436;2022-08-03T12:15:29;99866.38;;;40.25;16.29
40730;BME280;26418;50.070;8.436;2022-08-03T12:17:56;99861.09;;;40.73;16.52
40730;BME280;26418;50.070;8.436;2022-08-03T12:20:24;99855.94;;;40.60;16.68
40730;BME280;26418;50.070;8.436;2022-08-03T12:22:50;99867.94;;;40.37;16.85
40730;BME280;26418;50.070;8.436;2022-08-03T12:25:21;99868.78;;;40.55;16.71
40730;BME280;26418;50.070;8.436;2022-08-03T12:27:48;99865.22;;;40.89;16.76
40730;BME280;26418;50.070;8.436;2022-08-03T12:30:14;99858.03;;;40.82;16.14
40730;BME280;26418;50.070;8.436;2022-08-03T12:32:41;99859.81;;;40.96;16.42
40730;BME280;26418;50.070;8.436;2022-08-03T12:35:07;99859.03;;;40.84;15.55
40730;BME280;26418;50.070;8.436;2022-08-03T12:37:33;99854.91;;;40.68;15.67
40730;BME280;26418;50.070;8.436;2022-08-03T12:39:59;99862.81;;;40.42;16.25
40730;BME280;26418;50.070;8.436;2022-08-03T12:42:29;99851.25;;;40.45;16.50
40730;BME280;26418;50.070;8.436;2022-08-03T12:44:55;99853.28;;;40.45;16.33
40730;BME280;26418;50.070;8.436;2022-08-03T12:47:20;99858.16;;;40.38;16.24
40730;BME280;26418;50.070;8.436;2022-08-03T12:49:51;99854.19;;;40.07;16.80
40730;BME280;26418;50.070;8.436;2022-08-03T12:52:19;99855.13;;;39.93;17.55
40730;BME280;26418;50.070;8.436;2022-08-03T12:54:59;99856.00;;;39.61;17.70
40730;BME280;26418;50.070;8.436;2022-08-03T12:57:25;99858.41;;;39.37;17.66
40730;BME280;26418;50.070;8.436;2022-08-03T13:00:12;99857.28;;;38.96;17.75
40730;BME280;26418;50.070;8.436;2022-08-03T13:02:37;99849.91;;;38.52;17.76
40730;BME280;26418;50.070;8.436;2022-08-03T13:05:09;99853.09;;;38.18;18.23
40730;BME280;26418;50.070;8.436;2022-08-03T13:07:43;99857.97;;;37.97;18.48
40730;BME280;26418;50.070;8.436;2022-08-03T13:10:09;99846.69;;;37.62;18.98
40730;BME280;26418;50.070;8.436;2022-08-03T13:12:48;99840.78;;;37.44;19.15
40730;BME280;26418;50.070;8.436;2022-08-03T13:15:14;99835.91;;;37.30;19.15
40730;BME280;26418;50.070;8.436;2022-08-03T13:17:40;99841.75;;;37.26;19.49
40730;BME280;26418;50.070;8.436;2022-08-03T13:20:06;99833.50;;;37.23;19.04
40730;BME280;26418;50.070;8.436;2022-08-03T13:22:31;99843.06;;;36.95;19.12
40730;BME280;26418;50.070;8.436;2022-08-03T13:24:58;99843.63;;;37.00;18.89
40730;BME280;26418;50.070;8.436;2022-08-03T13:27:26;99838.09;;;36.75;18.88
40730;BME280;26418;50.070;8.436;2022-08-03T13:29:52;99837.84;;;36.49;18.80
40730;BME280;26418;50.070;8.436;2022-08-03T13:32:19;99838.03;;;36.45;18.59
40730;BME280;26418;50.070;8.436;2022-08-03T13:34:45;99836.25;;;36.33;18.52
40730;BME280;26418;50.070;8.436;2022-08-03T13:37:11;99837.28;;;36.20;19.04
40730;BME280;26418;50.070;8.436;2022-08-03T13:39:37;99835.06;;;36.00;19.53
40730;BME280;26418;50.070;8.436;2022-08-03T13:42:03;99832.31;;;35.91;19.71
40730;BME280;26418;50.070;8.436;2022-08-03T13:44:32;99833.38;;;35.69;19.74